Birmingham, NJ

2:42 PM EST on December 07, 2019 (GMT -0500)
Southampton Township | | Change Station

Elev 0 ft 39.98 °N, 74.73 °W | Updated 16 seconds ago

Clear
Clear
40.5 °F
Feels Like 40 °F
N
1
Wind Variable Wind from West
Gusts 5.0 mph

Today
High -- | Low -- °F
--% Chance of Precip.
Yesterday
High -- | Low -- °F
Precip. -- in
Pressure 30.38 in
Visibility 10.0 miles
Clouds Few 16000 ft
Windchill 40 °F
Dew Point 24 °F
Humidity 51%
Rainfall 0.00 in
Snow Depth Not available.
7:06 AM 4:33 PM
Waxing Gibbous, 81% visible
METAR KWRI 071756Z AUTO 31010G17KT 10SM FEW160 04/M08 A3037 RMK AO2 SLP285 T00421085 10047 21020 57005 $
Pressure 30.38 in
Visibility 10.0 miles
Clouds Few 16000 ft
Windchill 40 °F
Dew Point 24 °F
Humidity 51%
Rainfall 0.00 in
Snow Depth Not available.
7:06 AM 4:33 PM
Waxing Gibbous, 81% visible
METAR KWRI 071756Z AUTO 31010G17KT 10SM FEW160 04/M08 A3037 RMK AO2 SLP285 T00421085 10047 21020 57005 $

Get Severe Weather Alerts

Thanks for signing up!

Be on the lookout for a verification email in your inbox.

You'll start receiving the daily forecast at 6 AM.

×

10-Day Weather Forecast

Almanac

Astronomy

Dec. 07, 2019 Rise Set
Actual Time
Civil Twilight
Nautical Twilight
Astronomical Twilight
Moon
Length of Visible Light
Length of Day
Tomorrow will be .
, % of the Moon is Illuminated

Today's Extremes

State Highs State Lows

Community

WunderPhotos

Category 6

Welcome to Category 6. This is the collective home for Weather Underground's featured writeups by Dr. Jeff Masters (right), Bob Henson (left), Chris Burt, and other regular contributors.

Nearby

Air Quality

  Air Quality AQ Index Pollutant
Not available.

Snow Depth

Station Depth Elevation

Earthquake Activity

City Distance Mag. Time & Date
Minimum magnitude displayed is 2.5.

Coastal Water Temperatures

Place Temperature

Stations

Nearby Weather Stations

Station Location Temp. Windchill Dew Point Humidity Wind Precip. Elev Updated Type
                   

Watches & Warnings

There are currently no watches in effect.